XS64 weather

Farm Services Inc Airport
Rio Hondo, Texas, United States

Public forecast

Using degrees Fahrenheit for public forecast. Weather courtesy of forecast.io.

Closest aviation weather report (METAR) to Farm Services Inc Airport

Closest report is Valley International Airport, 5.0 nm (9.2 km) WSW. Retrieved 2019/10/14 18:52 UTC (15 minutes ago):

KHRL 141852Z 14008G19KT 10SM FEW048 34/21 A2990 RMK AO2 SLP125 T03390206

Closest aviation forecast (TAF) to Farm Services Inc Airport

Closest forecast is Valley International Airport, 5.0 nm (9.2 km) WSW. Retrieved 2019/10/14 18:22 UTC (45 minutes ago):

TAF KHRL 141720Z 1418/1518 16009KT P6SM FEW050 SCT250 FM151500 16012KT P6SM SCT030